Time;durP1;ratioP1;P1;durP2;ratioP2;P2;SDS_P1;SDS_P2;PMS_P1;PMS_P2;Temp;Humidity;BMP_temperature;BMP_pressure;BME280_temperature;BME280_humidity;BME280_pressure;Samples;Min_cycle;Max_cycle;Signal;HPM_P1;HPM_P2
2022/01/13 00:02:15;;;;;;;14.33;9.58;;;1.60;99.90;;;;;;1897040;75;21055;-85
2022/01/13 00:05:09;;;;;;;14.87;9.93;;;1.60;99.90;;;;;;1910750;75;21087;-85
2022/01/13 00:10:46;;;;;;;17.40;10.43;;;1.50;99.90;;;;;;1962381;72;22122;-85
2022/01/13 00:13:47;;;;;;;15.13;10.55;;;1.50;99.90;;;;;;1905675;75;21196;-86
2022/01/13 00:16:43;;;;;;;16.20;10.48;;;1.40;99.90;;;;;;1917547;75;21181;-86
2022/01/13 00:19:46;;;;;;;15.20;11.22;;;1.40;99.90;;;;;;1942947;73;21055;-86
2022/01/13 00:25:11;;;;;;;17.00;11.40;;;1.30;99.90;;;;;;1943761;72;22250;-84
2022/01/13 00:30:43;;;;;;;16.70;11.85;;;1.30;99.90;;;;;;1955791;72;22169;-85
2022/01/13 00:33:35;;;;;;;19.50;12.35;;;1.30;99.90;;;;;;1905752;74;21265;-85
2022/01/13 00:36:29;;;;;;;17.60;11.53;;;1.20;99.90;;;;;;1928988;74;21158;-85
2022/01/13 00:39:20;;;;;;;17.98;12.05;;;1.20;99.90;;;;;;1928291;74;21051;-84
2022/01/13 00:42:12;;;;;;;16.87;11.30;;;1.30;99.90;;;;;;1905458;75;21059;-84
2022/01/13 00:45:04;;;;;;;19.50;11.80;;;1.30;99.90;;;;;;1925140;73;21091;-85
2022/01/13 00:50:36;;;;;;;17.80;11.65;;;1.20;99.90;;;;;;1953671;72;22167;-85
2022/01/13 00:56:07;;;;;;;16.05;11.35;;;1.30;99.90;;;;;;1950812;72;22176;-85
2022/01/13 00:58:58;;;;;;;17.42;11.28;;;1.20;99.90;;;;;;1883259;74;21159;-85
2022/01/13 01:01:52;;;;;;;15.88;11.18;;;1.20;99.90;;;;;;1874028;75;21063;-85
2022/01/13 01:04:44;;;;;;;15.48;11.20;;;1.20;99.90;;;;;;1893482;75;21125;-86
2022/01/13 01:07:36;;;;;;;15.58;11.00;;;1.20;99.90;;;;;;1887732;75;21071;-84
2022/01/13 01:10:27;;;;;;;16.40;11.35;;;1.10;99.90;;;;;;1910412;75;21128;-85
2022/01/13 01:13:22;;;;;;;18.80;12.07;;;1.10;99.90;;;;;;1887957;75;21609;-84
2022/01/13 01:16:13;;;;;;;16.62;11.12;;;1.00;99.90;;;;;;1892776;75;21064;-85
2022/01/13 01:22:04;;;;;;;17.07;10.48;;;1.00;99.90;;;;;;1930614;72;22264;-86
2022/01/13 01:27:55;;;;;;;16.70;11.75;;;0.90;99.90;;;;;;1880135;75;21105;-85
2022/01/13 01:30:49;;;;;;;15.55;10.58;;;1.00;99.90;;;;;;1893436;75;21519;-84
2022/01/13 01:33:47;;;;;;;15.70;10.98;;;0.90;99.90;;;;;;1873458;75;21107;-85
2022/01/13 01:36:33;;;;;;;15.53;11.15;;;0.80;99.90;;;;;;1872833;75;21171;-85
2022/01/13 01:42:06;;;;;;;16.48;11.38;;;0.80;99.90;;;;;;1954297;72;22241;-85
2022/01/13 01:47:37;;;;;;;17.82;11.05;;;0.70;99.90;;;;;;1944954;72;22322;-85
2022/01/13 01:50:35;;;;;;;18.30;11.43;;;0.70;99.90;;;;;;1948416;73;21584;-85
2022/01/13 01:56:02;;;;;;;17.40;11.80;;;0.70;99.90;;;;;;1945704;72;22137;-86
2022/01/13 01:58:55;;;;;;;15.88;11.60;;;0.80;99.90;;;;;;1880328;75;21177;-85
2022/01/13 02:01:48;;;;;;;17.80;11.45;;;0.70;99.90;;;;;;1902843;75;21076;-85
2022/01/13 02:04:40;;;;;;;17.12;10.95;;;0.70;99.90;;;;;;1904959;75;21059;-84
2022/01/13 02:10:12;;;;;;;17.75;10.72;;;0.50;99.90;;;;;;1953279;72;22205;-86
2022/01/13 02:13:07;;;;;;;16.95;12.40;;;0.50;99.90;;;;;;1838325;77;21060;-85
2022/01/13 02:16:02;;;;;;;16.55;11.63;;;0.40;99.90;;;;;;1822168;78;21160;-85
2022/01/13 02:18:54;;;;;;;16.35;11.15;;;0.40;99.90;;;;;;1894209;75;21052;-85
2022/01/13 02:21:46;;;;;;;14.95;10.95;;;0.50;99.90;;;;;;1897985;75;21107;-85
2022/01/13 02:24:38;;;;;;;15.53;10.88;;;0.50;99.90;;;;;;1894887;75;21125;-85
2022/01/13 02:27:29;;;;;;;15.03;10.82;;;0.50;99.90;;;;;;1891709;75;21095;-86
2022/01/13 02:30:20;;;;;;;15.98;10.82;;;0.50;99.90;;;;;;1882775;75;21063;-86
2022/01/13 02:33:15;;;;;;;14.35;10.35;;;0.50;99.90;;;;;;1893679;75;21090;-84
2022/01/13 02:36:09;;;;;;;14.68;10.23;;;0.60;99.90;;;;;;1894123;75;21092;-85
2022/01/13 02:39:01;;;;;;;15.15;10.00;;;0.70;99.90;;;;;;1894103;75;21113;-85
2022/01/13 02:44:31;;;;;;;16.70;10.68;;;0.70;99.90;;;;;;1947390;72;22118;-85
2022/01/13 02:50:09;;;;;;;13.65;10.05;;;0.60;99.90;;;;;;1940117;72;22109;-85
2022/01/13 02:55:42;;;;;;;16.55;10.93;;;0.60;99.90;;;;;;1968389;72;22130;-85
2022/01/13 02:58:34;;;;;;;14.87;10.53;;;0.60;99.90;;;;;;1922234;74;21106;-85
2022/01/13 03:01:26;;;;;;;16.85;11.20;;;0.60;99.90;;;;;;1919587;74;21117;-84
2022/01/13 03:04:21;;;;;;;14.35;9.80;;;0.60;99.90;;;;;;1918982;74;21158;-85
2022/01/13 03:07:11;;;;;;;14.23;10.35;;;0.70;99.90;;;;;;1916509;74;21156;-85
2022/01/13 03:10:03;;;;;;;16.82;11.00;;;0.70;99.90;;;;;;1928164;74;21387;-85
2022/01/13 03:15:34;;;;;;;15.45;10.50;;;0.60;99.90;;;;;;1946812;72;22192;-86
2022/01/13 03:18:26;;;;;;;16.48;10.23;;;0.60;99.90;;;;;;1930865;73;21067;-85
2022/01/13 03:21:18;;;;;;;14.23;9.90;;;0.60;99.90;;;;;;1914743;74;21647;-85
2022/01/13 03:26:49;;;;;;;14.70;10.05;;;0.50;99.90;;;;;;1941621;72;22242;-85
2022/01/13 03:29:41;;;;;;;14.47;9.65;;;0.40;99.90;;;;;;1917775;75;21110;-85
2022/01/13 03:32:33;;;;;;;13.88;9.78;;;0.40;99.90;;;;;;1917558;75;21091;-85
2022/01/13 03:35:25;;;;;;;13.62;9.70;;;0.50;99.90;;;;;;1917768;75;21059;-85
2022/01/13 03:40:55;;;;;;;14.98;9.53;;;0.40;99.90;;;;;;1954791;72;22167;-85
2022/01/13 03:43:46;;;;;;;13.00;9.35;;;0.50;99.90;;;;;;1904672;75;21118;-85
2022/01/13 03:46:39;;;;;;;13.90;10.00;;;0.50;99.90;;;;;;1898429;75;21141;-85
2022/01/13 03:49:30;;;;;;;15.25;9.53;;;0.40;99.90;;;;;;1896358;75;21080;-85
2022/01/13 03:52:59;;;;;;;14.78;9.60;;;0.40;99.90;;;;;;1894700;75;21109;-86
2022/01/13 03:56:07;;;;;;;;;;;0.40;99.90;;;;;;1909662;75;21145;-85
2022/01/13 03:59:34;;;;;;;12.60;8.60;;;0.30;99.90;;;;;;1906507;75;20204;-85
2022/01/13 04:02:24;;;;;;;15.95;9.18;;;0.30;99.90;;;;;;1895830;75;21498;-84
2022/01/13 04:05:16;;;;;;;14.38;10.05;;;0.20;99.90;;;;;;1895772;75;21098;-85
2022/01/13 04:08:09;;;;;;;14.75;9.58;;;0.20;99.90;;;;;;1903963;75;21155;-84
2022/01/13 04:11:18;;;;;;;13.95;10.23;;;0.20;99.90;;;;;;1901702;75;21066;-85
2022/01/13 04:14:11;;;;;;;13.55;9.50;;;0.10;99.90;;;;;;1909891;75;21048;-85
2022/01/13 04:17:02;;;;;;;14.45;9.65;;;0.10;99.90;;;;;;1907552;75;21661;-85
2022/01/13 04:19:54;;;;;;;14.53;10.18;;;0.10;99.90;;;;;;1906916;75;21095;-84
2022/01/13 04:22:48;;;;;;;15.72;10.48;;;0.10;99.90;;;;;;1889810;75;21052;-86
2022/01/13 04:25:42;;;;;;;14.13;10.03;;;0.20;99.90;;;;;;1895042;75;21188;-85
2022/01/13 04:28:34;;;;;;;15.90;10.95;;;0.20;99.90;;;;;;1897898;75;21086;-85
2022/01/13 04:31:25;;;;;;;15.10;9.65;;;0.20;99.90;;;;;;1895527;75;21130;-84
2022/01/13 04:34:18;;;;;;;14.28;10.32;;;0.10;99.90;;;;;;1917504;75;21167;-87
2022/01/13 04:37:10;;;;;;;16.57;10.72;;;0.10;99.90;;;;;;1897968;75;21116;-85
2022/01/13 04:40:01;;;;;;;16.93;11.03;;;0.10;99.90;;;;;;1899884;74;21063;-86
2022/01/13 04:45:39;;;;;;;17.57;10.35;;;-0.10;99.90;;;;;;1943257;72;22100;-86
2022/01/13 04:51:10;;;;;;;14.20;10.50;;;0.00;99.90;;;;;;1976318;72;22156;-86
2022/01/13 04:54:01;;;;;;;15.68;10.63;;;0.00;99.90;;;;;;1941228;73;21137;-86
2022/01/13 04:57:06;;;;;;;15.45;10.72;;;0.00;99.90;;;;;;1917837;75;21062;-85
2022/01/13 04:59:58;;;;;;;16.45;10.45;;;-0.10;99.90;;;;;;1951087;73;21509;-85
2022/01/13 05:05:30;;;;;;;18.02;11.43;;;-0.20;99.90;;;;;;1948962;72;22169;-84
2022/01/13 05:08:21;;;;;;;15.13;10.40;;;-0.20;99.90;;;;;;1894687;75;21106;-85
2022/01/13 05:11:13;;;;;;;15.18;10.20;;;-0.10;99.90;;;;;;1892986;75;21192;-85
2022/01/13 05:14:04;;;;;;;13.28;8.68;;;0.00;99.90;;;;;;1887803;75;21056;-85
2022/01/13 05:17:01;;;;;;;16.93;10.55;;;-0.10;99.90;;;;;;1895774;75;21580;-85
2022/01/13 05:20:09;;;;;;;16.65;11.05;;;-0.20;99.90;;;;;;1904457;75;21223;-85
2022/01/13 05:22:42;;;;;;;17.10;12.05;;;-0.20;99.90;;;;;;1886943;75;21163;-85
2022/01/13 05:25:34;;;;;;;16.05;10.60;;;-0.20;99.90;;;;;;1888792;75;21181;-85
2022/01/13 05:28:26;;;;;;;16.95;10.10;;;-0.20;99.90;;;;;;1887369;75;21088;-85
2022/01/13 05:31:17;;;;;;;16.50;10.48;;;-0.10;99.90;;;;;;1883659;75;21091;-85
2022/01/13 05:34:09;;;;;;;17.07;11.10;;;-0.20;99.90;;;;;;1883683;75;21125;-85
2022/01/13 05:37:02;;;;;;;16.35;10.58;;;-0.10;99.90;;;;;;1887211;75;21115;-85
2022/01/13 05:39:54;;;;;;;20.48;10.82;;;-0.30;99.90;;;;;;1886396;75;21055;-86
2022/01/13 05:45:28;;;;;;;14.20;10.18;;;-0.20;99.90;;;;;;1976069;72;22244;-85
2022/01/13 05:48:16;;;;;;;15.50;10.88;;;-0.20;99.90;;;;;;1929418;74;21080;-86
2022/01/13 05:51:08;;;;;;;14.25;10.35;;;-0.20;99.90;;;;;;1917483;74;21109;-87
2022/01/13 05:53:59;;;;;;;15.65;10.18;;;-0.30;99.90;;;;;;1909465;74;21114;-85
2022/01/13 05:56:51;;;;;;;15.55;10.13;;;-0.20;99.90;;;;;;1928003;74;21035;-85
2022/01/13 06:02:22;;;;;;;16.00;10.78;;;-0.20;99.90;;;;;;1935250;72;22231;-85
2022/01/13 06:05:15;;;;;;;16.50;10.80;;;-0.10;99.90;;;;;;1899384;75;21203;-86
2022/01/13 06:08:07;;;;;;;14.43;10.25;;;-0.10;99.90;;;;;;1884205;75;21105;-85
2022/01/13 06:16:18;;;;;;;17.02;10.90;;;-0.10;99.90;;;;;;1933682;72;22207;-85
2022/01/13 06:19:10;;;;;;;15.95;10.93;;;-0.10;99.90;;;;;;1907401;74;21118;-86
2022/01/13 06:22:01;;;;;;;16.67;11.08;;;-0.10;99.90;;;;;;1884515;75;21145;-85
2022/01/13 06:24:53;;;;;;;18.00;11.63;;;-0.20;99.90;;;;;;1902786;75;21060;-84
2022/01/13 06:27:45;;;;;;;17.30;11.38;;;-0.20;99.90;;;;;;1887363;75;21088;-87
2022/01/13 06:30:38;;;;;;;17.23;11.05;;;-0.20;99.90;;;;;;1887967;75;21193;-86
2022/01/13 06:33:29;;;;;;;16.30;11.03;;;-0.20;99.90;;;;;;1885229;75;21226;-86
2022/01/13 06:36:20;;;;;;;16.17;11.00;;;-0.10;99.90;;;;;;1883118;75;21163;-87
2022/01/13 06:39:12;;;;;;;18.55;10.93;;;-0.10;99.90;;;;;;1903222;75;21106;-87
2022/01/13 06:42:06;;;;;;;16.73;10.70;;;-0.10;99.90;;;;;;1886402;75;21629;-88
2022/01/13 06:44:58;;;;;;;15.00;10.35;;;-0.10;99.90;;;;;;1886439;75;21108;-87
2022/01/13 06:50:29;;;;;;;17.15;11.43;;;-0.10;99.90;;;;;;1942987;72;22118;-88
2022/01/13 06:56:05;;;;;;;20.10;10.85;;;-0.10;99.90;;;;;;1950607;72;22115;-85
2022/01/13 06:58:57;;;;;;;17.77;11.45;;;-0.10;99.90;;;;;;1910511;74;21613;-86
2022/01/13 07:01:49;;;;;;;16.23;11.22;;;-0.10;99.90;;;;;;1902773;75;21044;-87
2022/01/13 07:07:20;;;;;;;16.10;11.12;;;0.00;99.90;;;;;;1952185;72;22079;-86
2022/01/13 07:10:14;;;;;;;15.98;10.78;;;0.00;99.90;;;;;;1894578;75;21071;-85
2022/01/13 07:13:06;;;;;;;19.80;11.18;;;0.00;99.90;;;;;;1896299;75;21048;-87
2022/01/13 07:15:59;;;;;;;19.57;11.40;;;0.00;99.90;;;;;;1891017;75;21081;-85
2022/01/13 07:18:51;;;;;;;16.55;10.43;;;-0.10;99.90;;;;;;1892775;75;21096;-85
2022/01/13 07:21:44;;;;;;;15.78;11.03;;;-0.10;99.90;;;;;;1875572;75;21597;-87
2022/01/13 07:24:37;;;;;;;16.87;10.63;;;-0.10;99.90;;;;;;1894724;75;21149;-86
2022/01/13 07:30:12;;;;;;;20.82;12.50;;;-0.10;99.90;;;;;;1966377;72;22111;-86
2022/01/13 07:33:03;;;;;;;17.65;12.13;;;-0.10;99.90;;;;;;1905507;74;21131;-86
2022/01/13 07:35:56;;;;;;;15.08;10.98;;;-0.20;99.90;;;;;;1905068;75;21124;-86
2022/01/13 07:41:27;;;;;;;18.12;11.53;;;-0.20;99.90;;;;;;1951721;72;22214;-86
2022/01/13 07:44:18;;;;;;;17.37;11.90;;;-0.20;99.90;;;;;;1907202;75;21259;-88
2022/01/13 07:49:50;;;;;;;17.45;11.95;;;-0.20;99.90;;;;;;1945693;72;22356;-86
2022/01/13 07:55:25;;;;;;;16.30;11.35;;;-0.20;99.90;;;;;;1936714;72;22134;-85
2022/01/13 07:58:19;;;;;;;17.82;10.93;;;-0.20;99.90;;;;;;1897155;73;21202;-81
2022/01/13 08:01:11;;;;;;;19.12;11.90;;;-0.20;99.90;;;;;;1888473;75;21161;-80
2022/01/13 08:04:03;;;;;;;17.02;11.80;;;-0.20;99.90;;;;;;1889689;75;21115;-80
2022/01/13 08:06:55;;;;;;;18.62;11.05;;;-0.30;99.90;;;;;;1883760;75;21110;-82
2022/01/13 08:09:46;;;;;;;16.48;10.75;;;-0.30;99.90;;;;;;1877403;75;21054;-80
2022/01/13 08:15:16;;;;;;;19.15;12.07;;;-0.20;99.90;;;;;;1937094;72;22360;-81
2022/01/13 08:20:48;;;;;;;17.73;11.60;;;-0.20;99.90;;;;;;1922949;72;22241;-81
2022/01/13 08:23:40;;;;;;;15.98;10.75;;;-0.20;99.90;;;;;;1889626;75;21070;-81
2022/01/13 08:26:32;;;;;;;18.90;13.30;;;-0.10;99.90;;;;;;1904986;75;21050;-80
2022/01/13 08:29:24;;;;;;;17.02;12.20;;;-0.10;99.90;;;;;;1902835;75;21182;-80
2022/01/13 08:32:16;;;;;;;19.42;11.93;;;0.00;99.90;;;;;;1884578;76;21058;-82
2022/01/13 08:35:08;;;;;;;19.77;12.37;;;0.00;99.90;;;;;;1897448;75;21122;-80
2022/01/13 08:40:39;;;;;;;16.67;10.98;;;0.00;99.90;;;;;;1935161;72;22284;-81
2022/01/13 08:46:09;;;;;;;18.55;11.70;;;0.00;99.90;;;;;;1927057;72;22371;-80
2022/01/13 08:49:00;;;;;;;16.40;11.68;;;0.10;99.90;;;;;;1902379;75;21156;-82
2022/01/13 08:51:53;;;;;;;17.80;11.95;;;0.10;99.90;;;;;;1911444;75;21050;-81
2022/01/13 08:57:24;;;;;;;22.05;12.65;;;0.10;99.90;;;;;;1946061;72;22600;-80
2022/01/13 09:00:17;;;;;;;19.07;11.45;;;0.20;99.90;;;;;;1912601;73;21143;-82
2022/01/13 09:05:49;;;;;;;17.65;11.15;;;0.30;99.90;;;;;;1910609;72;22183;-81
2022/01/13 09:08:41;;;;;;;18.95;11.68;;;0.30;99.90;;;;;;1869764;76;21156;-80
2022/01/13 09:11:32;;;;;;;17.62;10.63;;;0.40;99.90;;;;;;1884208;76;21101;-80
2022/01/13 09:14:27;;;;;;;18.07;9.98;;;0.40;99.90;;;;;;1891071;75;21082;-80
2022/01/13 09:17:22;;;;;;;18.27;10.20;;;0.50;99.90;;;;;;1901917;75;21114;-81
2022/01/13 09:20:15;;;;;;;14.90;10.08;;;0.60;99.90;;;;;;1884619;76;21066;-81
2022/01/13 09:23:07;;;;;;;13.30;8.93;;;0.60;99.90;;;;;;1891381;75;21208;-81
2022/01/13 09:25:59;;;;;;;16.82;9.90;;;0.60;99.90;;;;;;1893659;75;21073;-81
2022/01/13 09:28:52;;;;;;;14.90;9.00;;;0.70;99.90;;;;;;1903555;75;21141;-80
2022/01/13 09:31:44;;;;;;;13.50;9.08;;;0.70;99.90;;;;;;1897806;75;21565;-82
2022/01/13 09:34:37;;;;;;;13.60;9.28;;;0.80;99.90;;;;;;1916964;75;21110;-81
2022/01/13 09:37:29;;;;;;;14.18;9.63;;;0.80;99.90;;;;;;1894301;75;21078;-82
2022/01/13 09:40:21;;;;;;;14.07;9.70;;;0.90;99.90;;;;;;1884759;76;21102;-81
2022/01/13 09:46:00;;;;;;;16.67;10.10;;;0.90;99.90;;;;;;1936224;72;22127;-80
2022/01/13 09:49:02;;;;;;;15.93;11.38;;;0.90;99.90;;;;;;1881973;75;21125;-81
2022/01/13 09:51:57;;;;;;;16.20;10.90;;;1.10;99.90;;;;;;1894401;75;21063;-82
2022/01/13 09:57:28;;;;;;;15.85;11.30;;;1.10;99.90;;;;;;1955595;72;22169;-81
2022/01/13 10:00:22;;;;;;;15.30;11.03;;;1.10;99.90;;;;;;1921907;73;21204;-80
2022/01/13 10:03:15;;;;;;;16.95;10.93;;;1.10;99.90;;;;;;1925006;73;21121;-80
2022/01/13 10:06:14;;;;;;;18.15;11.00;;;1.20;99.90;;;;;;1912197;75;21094;-82
2022/01/13 10:09:05;;;;;;;16.27;10.83;;;1.30;99.90;;;;;;1912536;73;21154;-81
2022/01/13 10:11:58;;;;;;;15.93;10.40;;;1.30;99.90;;;;;;1921629;73;21051;-81
2022/01/13 10:18:03;;;;;;;17.57;10.08;;;1.40;99.90;;;;;;1911417;75;21163;-81
2022/01/13 10:21:07;;;;;;;17.05;12.05;;;1.50;99.90;;;;;;1898744;75;21140;-81
2022/01/13 10:24:09;;;;;;;19.30;12.33;;;1.50;99.90;;;;;;1902649;75;21064;-80
2022/01/13 10:27:06;;;;;;;17.82;11.10;;;1.50;99.90;;;;;;1916713;73;21088;-82
2022/01/13 10:29:58;;;;;;;15.63;10.90;;;1.60;99.90;;;;;;1912232;75;21108;-80
2022/01/13 10:48:35;;;;;;;14.58;10.50;;;1.80;99.90;;;;;;1932914;72;22137;-81
2022/01/13 10:51:27;;;;;;;18.82;8.48;;;1.80;99.90;;;;;;1911181;73;21177;-81
2022/01/13 10:57:24;;;;;;;15.40;10.60;;;1.80;99.90;;;;;;1945245;72;22221;-81
2022/01/13 11:00:23;;;;;;;15.15;8.78;;;1.90;99.90;;;;;;1896463;75;21047;-80
2022/01/13 11:03:18;;;;;;;17.55;9.80;;;1.90;99.90;;;;;;1895259;75;21083;-80
2022/01/13 11:06:11;;;;;;;16.17;11.40;;;2.00;99.90;;;;;;1901640;75;21117;-80
2022/01/13 11:11:45;;;;;;;15.10;9.90;;;2.10;99.90;;;;;;1948645;72;22296;-80
2022/01/13 11:14:40;;;;;;;17.40;11.18;;;2.20;99.90;;;;;;1945724;73;21098;-80
2022/01/13 11:20:11;;;;;;;15.23;10.53;;;2.30;99.90;;;;;;1944714;72;22151;-81
2022/01/13 11:23:02;;;;;;;15.60;10.10;;;2.40;99.90;;;;;;1908924;74;21107;-80
2022/01/13 11:25:55;;;;;;;13.28;9.88;;;2.50;99.90;;;;;;1935337;74;21121;-80
2022/01/13 11:28:55;;;;;;;13.88;9.75;;;2.50;99.90;;;;;;1925428;73;21088;-81
2022/01/13 11:31:47;;;;;;;14.13;9.43;;;2.60;99.90;;;;;;1905123;75;21103;-81
2022/01/13 11:34:39;;;;;;;15.32;10.35;;;2.50;99.90;;;;;;1912101;74;21116;-81
2022/01/13 11:40:42;;;;;;;16.45;11.30;;;2.60;99.90;;;;;;1957667;72;22099;-81
2022/01/13 11:46:18;;;;;;;16.73;11.08;;;2.70;99.90;;;;;;1933753;72;22583;-80
2022/01/13 11:49:16;;;;;;;19.35;12.47;;;2.80;99.90;;;;;;1898123;75;21104;-80
2022/01/13 11:52:13;;;;;;;16.82;11.57;;;2.80;99.90;;;;;;1905122;75;21113;-81
2022/01/13 11:55:24;;;;;;;17.32;11.18;;;2.90;99.90;;;;;;1904628;75;21177;-82
2022/01/13 12:01:19;;;;;;;17.17;11.20;;;3.00;99.90;;;;;;1976148;72;22324;-80
2022/01/13 12:04:10;;;;;;;28.10;12.80;;;3.00;99.90;;;;;;1917533;74;21227;-80
2022/01/13 12:07:02;;;;;;;18.77;12.78;;;3.00;99.90;;;;;;1905215;75;21059;-80
2022/01/13 12:09:54;;;;;;;15.45;11.83;;;3.00;99.90;;;;;;1935002;73;21656;-80
2022/01/13 12:15:26;;;;;;;18.82;12.25;;;3.10;99.90;;;;;;1945013;72;22137;-81
2022/01/13 12:18:17;;;;;;;18.12;12.50;;;3.10;99.90;;;;;;1864375;76;21138;-80
2022/01/13 12:21:24;;;;;;;18.92;12.45;;;3.10;99.90;;;;;;1894093;75;21066;-80
2022/01/13 12:26:58;;;;;;;14.53;11.10;;;3.30;99.90;;;;;;1962809;72;22704;-80
2022/01/13 12:29:54;;;;;;;17.57;11.88;;;3.30;99.90;;;;;;1916921;75;21124;-80
2022/01/13 12:32:47;;;;;;;18.35;12.73;;;3.40;99.90;;;;;;1916947;75;21158;-80
2022/01/13 12:35:48;;;;;;;17.60;11.95;;;3.40;99.90;;;;;;1916961;75;21099;-80
2022/01/13 12:38:39;;;;;;;17.10;12.23;;;3.50;99.90;;;;;;1917390;75;21133;-80
2022/01/13 12:41:32;;;;;;;18.98;11.50;;;3.50;99.90;;;;;;1917264;75;21105;-80
2022/01/13 12:50:20;;;;;;;15.85;10.68;;;3.60;99.90;;;;;;1965849;72;22124;-80
2022/01/13 12:55:58;;;;;;;16.23;9.90;;;3.70;99.90;;;;;;1941679;72;22272;-80
2022/01/13 12:58:52;;;;;;;17.05;9.55;;;3.70;99.90;;;;;;1930485;73;21063;-80
2022/01/13 13:01:44;;;;;;;20.90;9.23;;;3.80;99.90;;;;;;1923367;73;21114;-79
2022/01/13 13:07:16;;;;;;;13.38;9.63;;;3.80;99.90;;;;;;1942198;72;22103;-81
2022/01/13 13:10:08;;;;;;;13.62;8.73;;;3.80;99.90;;;;;;1913594;74;21134;-81
2022/01/13 13:13:01;;;;;;;12.88;9.28;;;3.80;99.90;;;;;;1880958;76;21181;-79
2022/01/13 13:15:58;;;;;;;11.83;9.30;;;3.90;99.90;;;;;;1920764;74;21469;-80
2022/01/13 13:18:52;;;;;;;12.45;9.33;;;4.00;99.90;;;;;;1899539;74;21117;-80
2022/01/13 13:21:45;;;;;;;15.18;9.73;;;3.90;99.90;;;;;;1880702;76;21121;-80
2022/01/13 13:24:41;;;;;;;16.37;9.60;;;4.00;99.90;;;;;;1911520;75;21168;-80
2022/01/13 13:30:12;;;;;;;14.03;9.00;;;4.00;99.90;;;;;;1958026;72;22217;-80
2022/01/13 13:33:05;;;;;;;15.70;9.83;;;4.10;99.90;;;;;;1909048;75;21153;-91
2022/01/13 13:36:01;;;;;;;12.75;9.43;;;4.00;99.90;;;;;;1887212;75;21059;-91
2022/01/13 13:41:40;;;;;;;11.40;9.28;;;4.10;99.90;;;;;;1935825;72;22296;-89
2022/01/13 13:47:18;;;;;;;13.30;9.75;;;4.20;99.90;;;;;;1954098;72;22200;-88
2022/01/13 13:50:10;;;;;;;14.83;9.65;;;4.20;99.90;;;;;;1905393;75;21107;-88
2022/01/13 13:53:09;;;;;;;13.35;9.13;;;4.20;99.90;;;;;;1928501;73;21043;-89
2022/01/13 13:56:03;;;;;;;12.23;8.90;;;4.20;99.90;;;;;;1916715;74;21068;-88
2022/01/13 14:01:37;;;;;;;14.70;9.83;;;4.40;99.90;;;;;;1935087;72;22191;-87
2022/01/13 14:04:35;;;;;;;13.53;9.73;;;4.30;99.90;;;;;;1890046;75;21133;-88
2022/01/13 14:11:11;;;;;;;13.68;10.40;;;4.40;99.90;;;;;;1977845;72;22182;-89
2022/01/13 14:14:11;;;;;;;14.70;10.65;;;4.40;99.90;;;;;;1931488;72;21130;-91
2022/01/13 14:17:03;;;;;;;17.17;11.25;;;4.40;99.90;;;;;;1932625;73;21052;-86
2022/01/13 14:20:07;;;;;;;17.52;11.85;;;4.50;99.90;;;;;;1953330;73;21160;-86
2022/01/13 14:23:00;;;;;;;17.65;12.70;;;4.50;99.90;;;;;;1953385;73;21054;-86
2022/01/13 14:28:32;;;;;;;18.80;12.05;;;4.50;99.90;;;;;;1955638;72;22214;-86
2022/01/13 14:31:23;;;;;;;19.35;11.95;;;4.60;99.90;;;;;;1895792;74;21099;-85
2022/01/13 14:34:14;;;;;;;21.07;13.10;;;4.60;99.90;;;;;;1913070;75;21231;-86
2022/01/13 14:37:10;;;;;;;18.57;13.25;;;4.60;99.90;;;;;;1884888;76;21071;-86
2022/01/13 14:40:14;;;;;;;17.17;12.15;;;4.70;99.90;;;;;;1901709;75;21114;-86
2022/01/13 14:43:17;;;;;;;19.52;12.70;;;4.70;99.90;;;;;;1899950;75;21084;-86
2022/01/13 14:46:10;;;;;;;18.37;13.18;;;4.70;99.90;;;;;;1896203;75;21047;-86
2022/01/13 14:49:02;;;;;;;18.60;12.03;;;4.70;99.90;;;;;;1909697;75;21224;-86
2022/01/13 14:51:55;;;;;;;16.85;12.13;;;4.60;99.90;;;;;;1906666;75;21186;-86
2022/01/13 14:54:47;;;;;;;17.75;12.63;;;4.60;99.90;;;;;;1901768;75;21052;-86
2022/01/13 14:57:38;;;;;;;18.50;13.35;;;4.70;99.90;;;;;;1897066;75;21537;-88
2022/01/13 15:00:30;;;;;;;20.27;14.10;;;4.70;99.90;;;;;;1906969;75;21153;-86
2022/01/13 15:03:22;;;;;;;18.32;13.53;;;4.70;99.90;;;;;;1906885;75;21056;-86
2022/01/13 15:06:15;;;;;;;18.60;13.58;;;4.70;99.90;;;;;;1902833;75;21055;-86
2022/01/13 15:09:07;;;;;;;19.42;12.95;;;4.70;99.90;;;;;;1897811;75;21482;-86
2022/01/13 15:11:58;;;;;;;19.35;12.73;;;4.70;99.90;;;;;;1895392;75;21160;-86
2022/01/13 15:14:50;;;;;;;24.02;13.68;;;4.60;99.90;;;;;;1893018;75;21169;-86
2022/01/13 15:17:41;;;;;;;17.67;12.45;;;4.50;99.90;;;;;;1904739;75;21165;-86
2022/01/13 15:20:33;;;;;;;17.57;12.65;;;4.50;99.90;;;;;;1899352;75;21145;-85
2022/01/13 15:23:25;;;;;;;17.90;12.53;;;4.50;99.90;;;;;;1895403;75;21094;-86
2022/01/13 15:26:17;;;;;;;15.10;11.68;;;4.40;99.90;;;;;;1909058;75;21039;-86
2022/01/13 15:29:09;;;;;;;20.52;12.68;;;4.30;99.90;;;;;;1885111;76;21122;-86
2022/01/13 15:32:00;;;;;;;19.40;12.33;;;4.30;99.90;;;;;;1899864;75;21052;-86
2022/01/13 15:34:52;;;;;;;18.98;12.37;;;4.30;99.90;;;;;;1907600;75;21068;-86
2022/01/13 15:37:43;;;;;;;20.35;13.32;;;4.30;99.90;;;;;;1889755;75;21105;-86
2022/01/13 15:40:35;;;;;;;18.30;13.60;;;4.30;99.90;;;;;;1895685;75;21058;-85
2022/01/13 15:43:26;;;;;;;17.98;13.00;;;4.20;99.90;;;;;;1884331;76;21563;-86
2022/01/13 15:46:18;;;;;;;16.93;12.25;;;4.20;99.90;;;;;;1895809;75;21115;-85
2022/01/13 15:49:10;;;;;;;20.82;12.20;;;4.20;99.90;;;;;;1891180;75;21609;-85
2022/01/13 15:52:01;;;;;;;16.87;12.10;;;4.20;99.90;;;;;;1895236;75;21066;-86
2022/01/13 15:54:53;;;;;;;17.12;12.33;;;4.20;99.90;;;;;;1899063;75;21062;-86
2022/01/13 15:57:45;;;;;;;15.10;11.10;;;4.10;99.90;;;;;;1884351;76;21083;-88
2022/01/13 16:00:38;;;;;;;18.50;11.25;;;4.10;99.90;;;;;;1905930;75;21102;-86
2022/01/13 16:03:30;;;;;;;19.62;12.55;;;4.10;99.90;;;;;;1905820;75;21056;-87
2022/01/13 16:06:22;;;;;;;17.85;11.78;;;4.10;99.90;;;;;;1904194;75;21043;-86
2022/01/13 16:09:13;;;;;;;16.85;11.73;;;4.10;99.90;;;;;;1884212;76;21157;-85
2022/01/13 16:12:06;;;;;;;18.65;12.28;;;4.10;99.90;;;;;;1906123;74;21127;-85
2022/01/13 16:15:00;;;;;;;18.62;12.88;;;4.00;99.90;;;;;;1890204;75;21613;-87
2022/01/13 16:17:53;;;;;;;18.62;12.65;;;4.00;99.90;;;;;;1893502;75;21052;-86
2022/01/13 16:20:45;;;;;;;19.37;12.60;;;4.00;99.90;;;;;;1903360;75;21051;-86
2022/01/13 16:23:37;;;;;;;17.37;11.97;;;3.90;99.90;;;;;;1898456;75;21055;-86
2022/01/13 16:26:28;;;;;;;18.00;12.03;;;3.90;99.90;;;;;;1894824;75;21043;-85
2022/01/13 16:29:53;;;;;;;17.65;12.70;;;3.90;99.90;;;;;;1887913;75;21174;-86
2022/01/13 16:32:47;;;;;;;18.23;12.00;;;3.90;99.90;;;;;;1889267;75;21062;-85
2022/01/13 16:35:38;;;;;;;16.95;11.93;;;3.80;99.90;;;;;;1893782;75;21229;-86
2022/01/13 16:38:30;;;;;;;21.50;12.47;;;3.70;99.90;;;;;;1872120;77;21099;-86
2022/01/13 16:41:23;;;;;;;17.23;11.90;;;3.70;99.90;;;;;;1884592;75;21090;-86
2022/01/13 16:46:54;;;;;;;20.40;13.00;;;3.70;99.90;;;;;;1971521;72;22253;-85
2022/01/13 16:49:47;;;;;;;19.52;12.80;;;3.60;99.90;;;;;;1917543;75;21126;-87
2022/01/13 16:52:39;;;;;;;16.70;12.63;;;3.60;99.90;;;;;;1940152;73;21087;-86
2022/01/13 16:55:31;;;;;;;19.17;12.98;;;3.60;99.90;;;;;;1917337;75;21062;-86
2022/01/13 16:58:26;;;;;;;17.23;12.10;;;3.60;99.90;;;;;;1917401;75;21090;-86
2022/01/13 17:01:17;;;;;;;18.60;13.48;;;3.50;99.90;;;;;;1917314;75;21112;-88
2022/01/13 17:04:10;;;;;;;20.48;12.63;;;3.40;99.90;;;;;;1917606;73;21060;-87
2022/01/13 17:07:04;;;;;;;17.30;12.73;;;3.40;99.90;;;;;;1917517;75;21051;-87
2022/01/13 17:09:56;;;;;;;21.65;13.38;;;3.40;99.90;;;;;;1917531;75;21106;-86
2022/01/13 17:12:48;;;;;;;19.55;12.63;;;3.40;99.90;;;;;;1917568;75;21062;-86
2022/01/13 17:15:39;;;;;;;21.33;13.03;;;3.40;99.90;;;;;;1932507;73;21156;-87
2022/01/13 17:18:34;;;;;;;18.45;12.18;;;3.40;99.90;;;;;;1919050;73;21068;-86
2022/01/13 17:24:15;;;;;;;20.92;13.65;;;3.40;99.90;;;;;;1942887;72;22261;-89
2022/01/13 17:27:07;;;;;;;22.48;13.55;;;3.30;99.90;;;;;;1889594;75;21096;-89
2022/01/13 17:29:59;;;;;;;17.65;12.37;;;3.20;99.90;;;;;;1894879;75;21075;-89
2022/01/13 17:32:51;;;;;;;23.15;13.72;;;3.20;99.90;;;;;;1873421;76;21125;-89
2022/01/13 17:35:43;;;;;;;21.48;15.25;;;3.10;99.90;;;;;;1873779;76;21144;-90
2022/01/13 17:38:36;;;;;;;20.55;13.55;;;3.00;99.90;;;;;;1873302;76;21056;-89
2022/01/13 17:41:27;;;;;;;23.12;15.40;;;3.00;99.90;;;;;;1873459;76;21072;-90
2022/01/13 17:44:20;;;;;;;25.25;15.60;;;3.00;99.90;;;;;;1880180;75;21063;-89
2022/01/13 17:49:53;;;;;;;23.52;15.18;;;3.00;99.90;;;;;;1958404;72;22116;-90
2022/01/13 17:52:44;;;;;;;22.32;14.73;;;3.00;99.90;;;;;;1873263;75;21120;-89
2022/01/13 17:55:38;;;;;;;22.87;14.28;;;3.00;99.90;;;;;;1873042;76;21071;-90